Time;durP1;ratioP1;P1;durP2;ratioP2;P2;SDS_P1;SDS_P2;PMS_P1;PMS_P2;Temp;Humidity;BMP_temperature;BMP_pressure;BME280_temperature;BME280_humidity;BME280_pressure;Samples;Min_cycle;Max_cycle;Signal;HPM_P1;HPM_P2
2023/04/23 00:01:46;;;;;;;6.37;3.83;;;;;;;12.98;100.00;95602.22;6106272;23;20409;-83
2023/04/23 00:04:15;;;;;;;5.40;2.83;;;;;;;12.92;100.00;95600.31;6087198;23;20370;-83
2023/04/23 00:06:41;;;;;;;5.80;3.40;;;;;;;12.92;100.00;95592.41;6087505;23;20067;-83
2023/04/23 00:09:08;;;;;;;9.03;3.23;;;;;;;12.91;100.00;95590.78;6091278;23;20111;-83
2023/04/23 00:11:34;;;;;;;5.77;3.30;;;;;;;12.83;100.00;95593.53;6086956;23;20025;-83
2023/04/23 00:14:00;;;;;;;12.97;7.27;;;;;;;12.84;100.00;95583.78;6089501;23;20325;-83
2023/04/23 00:16:26;;;;;;;7.17;3.60;;;;;;;12.88;100.00;95587.72;6090475;23;20450;-83
2023/04/23 00:18:51;;;;;;;5.97;2.83;;;;;;;12.87;100.00;95591.31;6090782;23;20430;-83
2023/04/23 00:21:17;;;;;;;8.03;3.37;;;;;;;12.84;100.00;95583.78;6066822;23;20684;-83
2023/04/23 00:23:43;;;;;;;6.23;3.30;;;;;;;12.88;100.00;95591.16;6089181;23;20021;-83
2023/04/23 00:26:09;;;;;;;4.57;2.80;;;;;;;12.86;100.00;95576.50;6089180;23;20016;-83
2023/04/23 00:28:35;;;;;;;8.77;3.30;;;;;;;12.85;100.00;95580.97;6085551;23;20017;-83
2023/04/23 00:31:01;;;;;;;6.70;2.90;;;;;;;12.96;100.00;95561.97;6106069;23;20424;-83
2023/04/23 00:33:26;;;;;;;4.97;2.67;;;;;;;12.97;100.00;95563.59;6121084;23;20001;-83
2023/04/23 00:35:52;;;;;;;7.13;3.30;;;;;;;13.01;100.00;95573.78;6146028;23;20080;-83
2023/04/23 00:38:19;;;;;;;6.17;2.50;;;;;;;13.04;100.00;95581.31;6144153;23;20021;-83
2023/04/23 00:40:45;;;;;;;6.67;2.90;;;;;;;13.09;100.00;95576.31;6144765;23;20088;-82
2023/04/23 00:43:14;;;;;;;5.30;2.87;;;;;;;13.07;100.00;95581.75;6120733;23;20021;-83
2023/04/23 00:45:40;;;;;;;8.77;3.50;;;;;;;12.98;100.00;95586.38;6120247;23;20021;-83
2023/04/23 00:48:06;;;;;;;6.90;3.10;;;;;;;13.03;100.00;95591.06;6145623;23;20476;-83
2023/04/23 00:50:31;;;;;;;5.33;2.33;;;;;;;13.04;100.00;95594.53;6146119;23;20158;-83
2023/04/23 00:52:57;;;;;;;5.43;2.60;;;;;;;13.01;100.00;95568.50;6146219;23;20036;-83
2023/04/23 00:55:23;;;;;;;5.13;2.50;;;;;;;12.95;100.00;95570.91;6146466;23;20008;-83
2023/04/23 00:57:49;;;;;;;5.50;2.60;;;;;;;13.02;100.00;95575.44;6143726;23;20844;-83
2023/04/23 01:00:16;;;;;;;5.80;2.30;;;;;;;12.91;100.00;95585.50;6143573;23;20401;-83
2023/04/23 01:02:43;;;;;;;6.83;2.80;;;;;;;12.92;100.00;95581.84;6170035;23;20005;-83
2023/04/23 01:05:12;;;;;;;7.23;3.13;;;;;;;12.83;100.00;95587.44;6145808;23;20020;-83
2023/04/23 01:07:38;;;;;;;7.40;2.70;;;;;;;12.75;100.00;95588.38;6146866;23;20095;-83
2023/04/23 01:10:04;;;;;;;4.87;2.60;;;;;;;12.76;100.00;95579.47;6146891;23;20009;-83
2023/04/23 01:12:30;;;;;;;5.90;2.23;;;;;;;12.80;100.00;95583.34;6146151;23;20048;-83
2023/04/23 01:14:57;;;;;;;7.47;2.97;;;;;;;12.89;100.00;95579.59;6146702;23;20009;-83
2023/04/23 01:17:23;;;;;;;8.63;2.90;;;;;;;12.91;100.00;95582.88;6145950;23;20043;-83
2023/04/23 01:19:48;;;;;;;7.63;2.60;;;;;;;12.83;100.00;95587.44;6146499;23;20488;-82
2023/04/23 01:22:15;;;;;;;3.60;2.20;;;;;;;12.82;100.00;95596.38;6146143;23;20017;-82
2023/04/23 01:24:41;;;;;;;5.87;2.40;;;;;;;12.86;100.00;95593.16;6145315;23;20021;-83
2023/04/23 01:27:09;;;;;;;7.97;2.80;;;;;;;12.80;100.00;95598.38;6120585;23;20047;-83
2023/04/23 01:29:35;;;;;;;6.37;3.67;;;;;;;12.88;100.00;95599.06;6144649;23;20013;-83
2023/04/23 01:32:02;;;;;;;6.27;2.67;;;;;;;12.77;100.00;95604.84;6144936;23;20032;-83
2023/04/23 01:34:30;;;;;;;6.57;2.87;;;;;;;12.67;100.00;95609.59;6143363;23;20024;-83
2023/04/23 01:36:57;;;;;;;6.03;2.33;;;;;;;12.54;100.00;95620.84;6144777;23;20856;-83
2023/04/23 01:39:23;;;;;;;6.77;3.07;;;;;;;12.52;100.00;95617.56;6120070;23;20025;-83
2023/04/23 01:41:49;;;;;;;7.20;2.80;;;;;;;12.52;100.00;95617.56;6143788;23;20413;-83
2023/04/23 01:44:15;;;;;;;5.83;2.83;;;;;;;12.44;100.00;95623.78;6144852;23;20116;-83
2023/04/23 01:46:41;;;;;;;5.70;2.90;;;;;;;12.39;100.00;95623.50;6145123;23;20035;-83
2023/04/23 01:49:07;;;;;;;7.63;3.17;;;;;;;12.43;100.00;95630.03;6145640;23;20017;-83
2023/04/23 01:51:34;;;;;;;10.20;3.63;;;;;;;12.39;100.00;95630.59;6146539;23;20025;-83
2023/04/23 01:54:00;;;;;;;7.73;3.00;;;;;;;12.33;100.00;95637.44;6148449;23;20104;-84
2023/04/23 01:56:27;;;;;;;6.40;3.20;;;;;;;12.19;100.00;95633.81;6148855;23;20044;-84
2023/04/23 01:58:52;;;;;;;9.97;3.57;;;;;;;12.21;100.00;95638.91;6146337;23;20437;-84
2023/04/23 02:01:18;;;;;;;7.90;2.97;;;;;;;12.15;100.00;95640.47;6145339;23;20028;-83
2023/04/23 02:03:44;;;;;;;6.03;3.37;;;;;;;12.15;100.00;95647.56;6147334;23;20017;-83
2023/04/23 02:06:10;;;;;;;10.93;3.83;;;;;;;12.18;100.00;95648.00;6149194;23;20087;-83
2023/04/23 02:08:37;;;;;;;7.30;3.30;;;;;;;12.01;100.00;95654.47;6147682;23;20016;-83
2023/04/23 02:11:05;;;;;;;9.20;3.40;;;;;;;12.00;100.00;95651.03;6147946;23;20025;-83
2023/04/23 02:13:31;;;;;;;6.00;3.27;;;;;;;12.09;100.00;95657.00;6147625;23;20506;-83
2023/04/23 02:15:57;;;;;;;7.70;3.13;;;;;;;11.96;100.00;95654.19;6147360;23;20017;-83
2023/04/23 02:18:24;;;;;;;7.60;3.17;;;;;;;11.93;100.00;95658.00;6146268;23;20024;-83
2023/04/23 02:20:50;;;;;;;9.07;4.47;;;;;;;11.99;100.00;95659.09;6147151;23;20374;-83
2023/04/23 02:23:15;;;;;;;9.37;3.37;;;;;;;11.81;100.00;95662.06;6146815;23;20108;-83
2023/04/23 02:25:42;;;;;;;8.33;4.60;;;;;;;11.90;100.00;95665.44;6147547;23;20017;-83
2023/04/23 02:28:10;;;;;;;7.53;3.17;;;;;;;11.84;100.00;95663.50;6142151;23;20329;-83
2023/04/23 02:30:44;;;;;;;13.07;4.23;;;;;;;11.88;100.00;95663.00;6121687;23;20019;-82
2023/04/23 02:33:11;;;;;;;9.37;3.53;;;;;;;11.86;100.00;95667.63;6145453;23;20067;-83
2023/04/23 02:35:36;;;;;;;9.87;3.77;;;;;;;11.62;100.00;95663.41;6122294;23;20449;-83
2023/04/23 02:38:02;;;;;;;5.97;3.70;;;;;;;11.70;100.00;95667.75;6173944;23;20027;-83
2023/04/23 02:40:28;;;;;;;10.13;3.87;;;;;;;11.57;100.00;95671.03;6147252;23;20017;-83
2023/04/23 02:42:53;;;;;;;6.07;3.53;;;;;;;11.64;100.00;95673.78;6138908;23;20411;-82
2023/04/23 02:45:20;;;;;;;11.03;4.33;;;;;;;11.57;100.00;95676.31;6129832;23;20341;-82
2023/04/23 02:47:45;;;;;;;10.53;3.43;;;;;;;11.40;100.00;95675.63;6108164;23;20223;-83
2023/04/23 02:50:11;;;;;;;7.40;3.70;;;;;;;11.35;100.00;95677.97;6131983;23;20403;-82
2023/04/23 02:52:36;;;;;;;8.73;3.80;;;;;;;11.41;100.00;95677.25;6131922;23;20023;-83
2023/04/23 02:55:02;;;;;;;6.37;3.80;;;;;;;11.39;100.00;95676.59;6133607;23;20025;-82
2023/04/23 02:57:28;;;;;;;10.27;3.93;;;;;;;11.44;100.00;95676.09;6132456;23;20044;-82
2023/04/23 02:59:54;;;;;;;9.97;4.37;;;;;;;11.45;100.00;95678.53;6133093;23;20009;-83
2023/04/23 03:02:23;;;;;;;7.60;4.00;;;;;;;11.42;100.00;95678.06;6131431;23;20021;-82
2023/04/23 03:04:50;;;;;;;10.93;4.03;;;;;;;11.45;100.00;95683.00;6129677;23;20437;-82
2023/04/23 03:07:16;;;;;;;9.90;3.93;;;;;;;11.26;100.00;95684.28;6106068;23;20009;-83
2023/04/23 03:09:48;;;;;;;8.67;3.80;;;;;;;11.36;100.00;95684.84;6129824;23;20309;-82
2023/04/23 03:12:14;;;;;;;8.87;4.10;;;;;;;11.31;100.00;95682.78;6107045;23;20420;-82
2023/04/23 03:14:40;;;;;;;10.50;4.43;;;;;;;11.31;100.00;95681.94;6142254;23;20019;-83
2023/04/23 03:17:06;;;;;;;10.00;4.10;;;;;;;11.39;100.00;95689.78;6143159;23;20013;-83
2023/04/23 03:19:32;;;;;;;9.33;3.67;;;;;;;11.35;100.00;95682.41;6167192;23;20357;-83
2023/04/23 03:21:58;;;;;;;9.90;4.10;;;;;;;11.40;100.00;95686.16;6142100;23;20432;-83
2023/04/23 03:24:25;;;;;;;8.57;3.70;;;;;;;11.36;100.00;95684.84;6143546;23;20479;-83
2023/04/23 03:26:50;;;;;;;9.67;4.20;;;;;;;11.33;100.00;95685.22;6143294;23;20192;-83
2023/04/23 03:29:16;;;;;;;7.80;3.97;;;;;;;11.37;100.00;95686.50;6145213;23;20013;-83
2023/04/23 03:31:42;;;;;;;8.40;4.67;;;;;;;11.33;100.00;95690.47;6145225;23;20458;-82
2023/04/23 03:34:09;;;;;;;7.80;3.77;;;;;;;11.29;100.00;95686.56;6121324;23;20353;-83
2023/04/23 03:36:36;;;;;;;6.53;4.37;;;;;;;11.24;100.00;95688.94;6145745;23;20021;-83
2023/04/23 03:39:03;;;;;;;7.37;3.93;;;;;;;11.23;100.00;95692.53;6145195;23;20021;-83
2023/04/23 03:41:39;;;;;;;12.47;4.40;;;;;;;11.30;100.00;95696.09;6122156;23;20325;-83
2023/04/23 03:44:07;;;;;;;8.53;4.57;;;;;;;11.28;100.00;95688.38;6144785;23;20063;-82
2023/04/23 03:46:41;;;;;;;11.30;4.40;;;;;;;11.22;100.00;95688.28;6146163;23;20015;-83
2023/04/23 03:49:07;;;;;;;10.00;4.40;;;;;;;11.11;100.00;95696.59;6169715;23;20016;-83
2023/04/23 03:51:34;;;;;;;6.40;3.70;;;;;;;11.05;100.00;95693.66;6143718;23;20091;-82
2023/04/23 03:53:59;;;;;;;8.60;3.80;;;;;;;10.92;100.00;95698.66;6124497;23;20090;-83
2023/04/23 03:56:28;;;;;;;9.20;3.83;;;;;;;10.96;100.00;95707.84;6175452;23;20436;-83
2023/04/23 03:59:16;;;;;;;8.57;4.47;;;;;;;11.05;100.00;95706.81;6151176;23;20082;-82
2023/04/23 04:01:43;;;;;;;7.67;3.67;;;;;;;10.99;100.00;95715.41;6082902;23;20397;-82
2023/04/23 04:04:09;;;;;;;9.87;5.10;;;;;;;10.97;100.00;95700.81;6081091;23;20004;-82
2023/04/23 04:06:35;;;;;;;9.77;4.40;;;;;;;10.99;100.00;95702.25;6083150;23;20454;-83
2023/04/23 04:09:00;;;;;;;7.60;4.50;;;;;;;11.04;100.00;95707.81;6082841;23;20017;-83
2023/04/23 04:11:27;;;;;;;9.37;4.83;;;;;;;11.13;100.00;95708.56;6082860;23;20722;-82
2023/04/23 04:13:53;;;;;;;8.30;4.40;;;;;;;11.04;100.00;95702.53;6057877;23;20325;-82
2023/04/23 04:16:18;;;;;;;8.77;4.43;;;;;;;11.08;100.00;95697.75;6058862;23;20116;-83
2023/04/23 04:18:44;;;;;;;10.53;4.80;;;;;;;11.03;100.00;95694.81;6057959;23;20017;-83
2023/04/23 04:21:10;;;;;;;10.90;4.90;;;;;;;11.01;100.00;95697.63;6109900;23;20350;-82
2023/04/23 04:23:36;;;;;;;8.87;4.70;;;;;;;11.05;100.00;95701.53;6085736;23;20021;-83
2023/04/23 04:26:01;;;;;;;8.70;4.70;;;;;;;10.96;100.00;95696.50;6060856;23;20024;-83
2023/04/23 04:28:27;;;;;;;9.07;4.70;;;;;;;11.14;100.00;95693.59;6084854;23;20370;-83
2023/04/23 04:30:53;;;;;;;11.77;5.07;;;;;;;11.07;100.00;95685.59;6098241;23;20013;-83
2023/04/23 04:33:19;;;;;;;10.13;4.77;;;;;;;11.10;100.00;95687.88;6143357;23;20013;-83
2023/04/23 04:35:47;;;;;;;7.67;4.37;;;;;;;11.05;100.00;95688.38;6144459;23;20402;-83
2023/04/23 04:38:13;;;;;;;9.63;4.50;;;;;;;11.11;100.00;95680.81;6119263;23;20052;-84
2023/04/23 04:40:39;;;;;;;10.63;4.50;;;;;;;11.08;100.00;95690.66;6144453;23;20064;-83
2023/04/23 04:43:09;;;;;;;8.70;4.33;;;;;;;11.01;100.00;95702.91;6143270;23;20445;-83
2023/04/23 04:45:34;;;;;;;8.23;3.80;;;;;;;10.97;100.00;95712.13;6143722;23;20092;-82
2023/04/23 04:48:00;;;;;;;7.37;4.33;;;;;;;10.93;100.00;95717.91;6118764;23;20013;-82
2023/04/23 04:50:25;;;;;;;8.40;4.83;;;;;;;10.87;100.00;95716.00;6143868;23;20009;-83
2023/04/23 04:52:51;;;;;;;5.47;3.20;;;;;;;11.00;100.00;95717.06;6143195;23;20027;-83
2023/04/23 04:55:17;;;;;;;6.10;3.43;;;;;;;11.03;100.00;95721.97;6143907;23;20012;-83
2023/04/23 04:57:42;;;;;;;7.90;3.27;;;;;;;10.98;100.00;95721.66;6142545;23;20017;-82
2023/04/23 05:00:29;;;;;;;7.43;3.03;;;;;;;10.91;100.00;95725.16;6143615;23;20024;-83
2023/04/23 05:02:58;;;;;;;8.50;3.17;;;;;;;11.04;100.00;95723.59;6142675;23;20045;-82
2023/04/23 05:05:25;;;;;;;5.77;3.03;;;;;;;11.16;100.00;95710.03;6143144;23;20452;-82
2023/04/23 05:07:53;;;;;;;8.70;3.03;;;;;;;11.20;100.00;95721.81;6146814;23;20013;-83
2023/04/23 05:10:19;;;;;;;9.60;3.20;;;;;;;11.18;100.00;95710.69;6146862;23;20005;-83
2023/04/23 05:12:45;;;;;;;4.23;2.40;;;;;;;11.21;100.00;95707.69;6145824;23;20467;-83
2023/04/23 05:15:12;;;;;;;5.07;2.53;;;;;;;11.08;100.00;95718.81;6121818;23;20071;-83
2023/04/23 05:17:39;;;;;;;5.93;3.03;;;;;;;11.12;100.00;95714.00;6147619;23;20108;-83
2023/04/23 05:20:10;;;;;;;4.97;2.50;;;;;;;11.27;100.00;95704.38;6145383;23;20034;-83
2023/04/23 05:22:37;;;;;;;4.77;2.27;;;;;;;11.33;100.00;95712.38;6145581;23;20017;-83
2023/04/23 05:25:04;;;;;;;4.70;2.40;;;;;;;11.25;100.00;95715.06;6147401;23;20020;-83
2023/04/23 05:27:30;;;;;;;4.03;2.10;;;;;;;11.24;100.00;95704.72;6146866;23;20484;-83
2023/04/23 05:29:55;;;;;;;4.33;2.47;;;;;;;11.20;100.00;95712.16;6122876;23;20011;-83
2023/04/23 05:32:21;;;;;;;7.90;2.60;;;;;;;11.17;100.00;95715.13;6146570;23;20017;-83
2023/04/23 05:34:46;;;;;;;4.43;2.00;;;;;;;11.17;100.00;95712.50;6143688;23;20021;-83
2023/04/23 05:37:12;;;;;;;4.47;2.10;;;;;;;11.23;100.00;95714.44;6134784;23;20946;-84
2023/04/23 05:39:38;;;;;;;4.73;2.10;;;;;;;11.30;100.00;95719.78;6131413;23;20004;-83
2023/04/23 05:42:03;;;;;;;5.63;2.20;;;;;;;11.40;100.00;95725.66;6137322;23;20074;-83
2023/04/23 05:44:33;;;;;;;3.00;1.60;;;;;;;11.36;100.00;95721.72;6117223;23;20012;-83
2023/04/23 05:46:59;;;;;;;4.80;2.10;;;;;;;11.21;100.00;95715.59;6140266;23;20020;-83
2023/04/23 05:49:26;;;;;;;3.87;2.20;;;;;;;11.40;100.00;95716.91;6140695;23;20012;-83
2023/04/23 05:51:51;;;;;;;3.10;1.60;;;;;;;11.28;100.00;95714.69;6164254;23;20099;-83
2023/04/23 05:54:19;;;;;;;4.97;2.10;;;;;;;11.30;100.00;95710.09;6134107;23;20017;-83
2023/04/23 05:56:48;;;;;;;4.53;1.90;;;;;;;11.31;100.00;95713.53;6132121;23;20033;-84
2023/04/23 05:59:14;;;;;;;3.83;1.90;;;;;;;11.40;100.00;95716.91;6107348;23;20025;-83
2023/04/23 06:01:43;;;;;;;2.87;1.77;;;;;;;11.39;100.00;95710.84;6080506;23;20009;-84
2023/04/23 06:04:10;;;;;;;6.87;3.60;;;;;;;11.38;100.00;95714.47;6107085;23;20505;-84
2023/04/23 06:06:44;;;;;;;9.20;3.97;;;;;;;11.45;100.00;95714.59;6146129;23;20017;-84
2023/04/23 06:09:11;;;;;;;4.83;2.60;;;;;;;11.36;100.00;95719.06;6148381;23;20045;-84
2023/04/23 06:11:41;;;;;;;5.60;2.77;;;;;;;11.37;100.00;95733.91;6123842;23;20069;-84
2023/04/23 06:14:07;;;;;;;3.60;1.90;;;;;;;11.48;100.00;95730.03;6148728;23;20010;-84
2023/04/23 06:16:34;;;;;;;3.93;2.07;;;;;;;11.40;100.00;95738.81;6122824;23;20049;-84
2023/04/23 06:19:05;;;;;;;3.83;2.57;;;;;;;11.54;100.00;95740.66;6149187;23;20465;-83
2023/04/23 06:21:32;;;;;;;5.70;3.17;;;;;;;11.60;100.00;95740.94;6092873;23;20501;-84
2023/04/23 06:23:58;;;;;;;5.43;2.90;;;;;;;11.45;100.00;95733.00;6117620;23;20021;-84
2023/04/23 06:26:25;;;;;;;4.73;2.60;;;;;;;11.52;100.00;95732.13;6118137;23;20016;-84
2023/04/23 06:28:55;;;;;;;3.73;2.37;;;;;;;11.65;100.00;95730.72;6142671;23;20017;-84
2023/04/23 06:31:28;;;;;;;4.30;2.43;;;;;;;11.72;100.00;95726.34;6094611;23;20020;-84
2023/04/23 06:33:57;;;;;;;4.13;2.50;;;;;;;11.74;100.00;95724.38;6090249;23;20040;-84
2023/04/23 06:36:23;;;;;;;5.20;2.70;;;;;;;11.75;100.00;95715.47;6089678;23;20045;-84
2023/04/23 06:38:54;;;;;;;6.27;2.73;;;;;;;11.74;100.00;95713.84;6089602;23;20052;-84
2023/04/23 06:41:25;;;;;;;5.20;2.80;;;;;;;11.66;100.00;95711.25;6114696;23;20013;-84
2023/04/23 06:44:09;;;;;;;6.50;3.03;;;;;;;11.88;100.00;95705.16;6115513;23;20496;-84
2023/04/23 06:46:48;;;;;;;5.93;2.80;;;;;;;11.90;100.00;95716.31;6113444;23;20009;-84
2023/04/23 06:49:13;;;;;;;6.00;2.50;;;;;;;11.77;100.00;95724.03;6113849;23;20103;-84
2023/04/23 06:51:40;;;;;;;4.47;2.27;;;;;;;11.81;100.00;95722.66;6117762;23;20774;-83
2023/04/23 06:54:07;;;;;;;4.40;2.60;;;;;;;11.91;100.00;95712.72;6098899;23;20009;-84
2023/04/23 06:56:39;;;;;;;5.70;2.77;;;;;;;11.86;100.00;95701.06;6144237;23;20457;-84
2023/04/23 06:59:06;;;;;;;6.40;2.50;;;;;;;12.00;100.00;95697.63;6093170;23;20775;-83
2023/04/23 07:01:34;;;;;;;3.63;2.30;;;;;;;11.90;100.00;95700.50;6118563;23;20020;-84
2023/04/23 07:03:59;;;;;;;4.57;2.20;;;;;;;11.93;100.00;95700.16;6100462;23;20009;-83
2023/04/23 07:06:28;;;;;;;3.13;1.97;;;;;;;12.32;100.00;95696.44;6149222;23;20040;-84
2023/04/23 07:08:55;;;;;;;4.33;2.53;;;;;;;12.37;100.00;95696.69;6100736;23;20037;-84
2023/04/23 07:11:23;;;;;;;3.80;2.07;;;;;;;12.30;100.00;95698.44;6100522;23;20572;-84
2023/04/23 07:13:48;;;;;;;4.67;2.27;;;;;;;12.27;100.00;95701.44;6100450;23;20013;-83
2023/04/23 07:16:16;;;;;;;4.47;2.37;;;;;;;12.27;100.00;95693.53;6110691;23;20017;-82
2023/04/23 07:18:42;;;;;;;3.80;2.07;;;;;;;12.42;100.00;95690.91;6157051;23;20023;-86
2023/04/23 07:21:08;;;;;;;3.57;1.70;;;;;;;12.46;100.00;95692.97;6098795;23;20021;-85
2023/04/23 07:23:33;;;;;;;6.63;2.10;;;;;;;12.44;100.00;95688.88;6123784;23;20437;-86
2023/04/23 07:26:01;;;;;;;5.13;2.37;;;;;;;12.54;100.00;95686.78;6100085;23;20048;-87
2023/04/23 07:28:27;;;;;;;5.17;2.00;;;;;;;12.60;100.00;95685.22;6124691;23;20047;-86
2023/04/23 07:30:52;;;;;;;4.50;2.40;;;;;;;12.49;100.00;95689.97;6099932;23;20002;-86
2023/04/23 07:33:18;;;;;;;3.97;2.20;;;;;;;12.66;100.00;95679.19;6126022;23;20108;-87
2023/04/23 07:35:44;;;;;;;4.57;2.20;;;;;;;13.09;100.00;95671.34;6148753;23;20017;-87
2023/04/23 07:38:17;;;;;;;4.85;2.70;;;;;;;13.25;100.00;95668.47;6128000;23;20020;-86
2023/04/23 07:40:52;;;;;;;6.00;2.40;;;;;;;14.09;100.00;95657.91;6100030;23;20021;-87
2023/04/23 07:43:18;;;;;;;4.37;2.60;;;;;;;14.58;100.00;95654.28;6126380;23;20020;-88
2023/04/23 07:45:49;;;;;;;6.13;2.70;;;;;;;14.80;100.00;95652.31;6102049;23;20021;-88
2023/04/23 07:48:18;;;;;;;4.97;2.10;;;;;;;14.79;100.00;95656.00;6127029;23;20386;-93
2023/04/23 07:50:47;;;;;;;4.40;1.97;;;;;;;14.13;100.00;95659.13;6104200;23;20059;-93
2023/04/23 07:53:13;;;;;;;5.17;2.07;;;;;;;14.38;100.00;95661.28;6101975;23;20013;-84
2023/04/23 07:55:40;;;;;;;3.67;1.70;;;;;;;14.60;100.00;95660.19;6148507;23;20643;-82
2023/04/23 07:58:08;;;;;;;2.37;1.20;;;;;;;14.62;100.00;95652.06;6101261;23;20017;-94
2023/04/23 08:00:40;;;;;;;2.93;1.30;;;;;;;14.60;100.00;95648.78;6125654;23;20442;-88
2023/04/23 08:03:06;;;;;;;1.60;0.90;;;;;;;14.40;100.00;95648.69;6102740;23;20037;-89
2023/04/23 08:05:31;;;;;;;6.17;1.90;;;;;;;14.57;100.00;95644.72;6126596;23;20417;-85
2023/04/23 08:07:57;;;;;;;1.70;0.97;;;;;;;14.77;100.00;95638.66;6101941;23;20068;-82
2023/04/23 08:10:23;;;;;;;2.97;1.23;;;;;;;14.36;100.00;95636.88;6126101;23;20021;-76
2023/04/23 08:12:56;;;;;;;4.43;1.83;;;;;;;14.36;100.00;95640.34;6123274;23;20016;-90
2023/04/23 08:15:22;;;;;;;2.13;1.00;;;;;;;14.42;100.00;95643.19;6128510;23;20077;-88
2023/04/23 08:17:48;;;;;;;2.07;1.20;;;;;;;14.98;100.00;95630.56;6152076;23;20052;-83
2023/04/23 08:20:15;;;;;;;2.83;1.17;;;;;;;14.92;100.00;95623.41;6130179;23;20020;-88
2023/04/23 08:22:40;;;;;;;2.07;0.87;;;;;;;15.64;100.00;95613.06;6102071;23;20077;-81
2023/04/23 08:25:07;;;;;;;1.20;0.77;;;;;;;17.24;100.00;95605.28;6101383;23;20654;-81
2023/04/23 08:27:33;;;;;;;3.77;1.10;;;;;;;17.37;100.00;95594.53;6149231;23;20013;-81
2023/04/23 08:29:58;;;;;;;2.17;0.87;;;;;;;18.29;100.00;95594.66;6115740;23;20001;-81
2023/04/23 08:32:25;;;;;;;1.27;0.85;;;;;;;18.28;100.00;95599.19;6112069;23;20014;-83
2023/04/23 08:34:51;;;;;;;0.98;0.70;;;;;;;18.40;100.00;95601.09;6091476;23;20743;-82
2023/04/23 08:37:16;;;;;;;1.20;0.88;;;;;;;17.43;100.00;95597.13;6093790;23;20024;-81
2023/04/23 08:39:42;;;;;;;2.83;1.35;;;;;;;17.66;100.00;95604.50;6130916;23;20520;-83
2023/04/23 08:42:37;;;;;;;1.88;1.00;;;;;;;17.40;100.00;95608.22;6119921;23;20017;-83
2023/04/23 08:45:03;;;;;;;1.38;0.60;;;;;;;17.17;100.00;95605.34;6099885;23;20017;-85
2023/04/23 08:47:31;;;;;;;3.45;0.82;;;;;;;17.18;100.00;95599.78;6093515;23;20009;-84
2023/04/23 08:49:59;;;;;;;5.18;1.65;;;;;;;18.64;100.00;95596.69;6118705;23;20021;-84
2023/04/23 08:52:37;;;;;;;2.33;1.02;;;;;;;18.64;100.00;95602.81;6140855;23;20016;-83
2023/04/23 08:55:06;;;;;;;3.38;1.00;;;;;;;19.08;100.00;95596.31;6115914;23;20021;-85
2023/04/23 08:57:32;;;;;;;1.73;0.80;;;;;;;18.55;100.00;95594.34;6093822;23;20040;-84
2023/04/23 09:00:10;;;;;;;3.13;1.38;;;;;;;18.27;100.00;95596.72;6121918;23;20382;-85
2023/04/23 09:02:39;;;;;;;1.10;0.73;;;;;;;18.10;100.00;95597.31;6099433;23;20013;-85
2023/04/23 09:05:06;;;;;;;2.50;1.25;;;;;;;17.35;100.00;95594.75;6125247;23;20013;-85
2023/04/23 09:07:35;;;;;;;7.80;3.67;;;;;;;17.82;100.00;95592.50;6125814;23;20009;-85
2023/04/23 09:10:04;;;;;;;5.50;1.20;;;;;;;17.77;100.00;95591.53;6125009;23;20032;-85
2023/04/23 09:12:31;;;;;;;5.40;1.10;;;;;;;18.12;100.00;95583.81;6122095;23;20021;-86
2023/04/23 09:14:57;;;;;;;0.50;0.50;;;;;;;18.26;100.00;95585.28;6122966;23;20005;-86
2023/04/23 09:17:27;;;;;;;3.35;1.60;;;;;;;17.06;100.00;95590.88;6121912;23;20017;-85
2023/04/23 09:19:53;;;;;;;2.90;1.30;;;;;;;17.38;100.00;95589.00;6122309;23;20084;-86
2023/04/23 09:22:40;;;;;;;1.52;0.70;;;;;;;17.49;100.00;95576.84;6097362;23;20071;-85
2023/04/23 09:25:11;;;;;;;2.85;1.10;;;;;;;17.74;100.00;95576.81;6121886;23;20018;-86
2023/04/23 09:27:37;;;;;;;3.50;0.93;;;;;;;17.52;100.00;95576.41;6122749;23;20037;-86
2023/04/23 09:30:15;;;;;;;1.67;0.80;;;;;;;17.78;100.00;95577.22;6122133;23;20032;-85
2023/04/23 09:32:42;;;;;;;2.88;1.52;;;;;;;17.56;100.00;95566.94;6096651;23;20021;-85
2023/04/23 09:35:11;;;;;;;1.83;0.75;;;;;;;17.53;100.00;95564.72;6096547;23;20017;-85
2023/04/23 09:37:47;;;;;;;1.05;0.60;;;;;;;18.66;100.00;95549.34;6096904;23;20684;-85
2023/04/23 09:40:19;;;;;;;1.75;1.20;;;;;;;17.84;100.00;95533.75;6099259;23;20005;-86
2023/04/23 09:42:49;;;;;;;1.52;0.80;;;;;;;18.64;100.00;95538.91;6124185;23;20387;-86
2023/04/23 09:45:16;;;;;;;2.63;0.77;;;;;;;18.61;100.00;95545.50;6148818;23;20014;-85
2023/04/23 09:47:48;;;;;;;0.63;0.50;;;;;;;18.43;100.00;95544.72;6124387;23;20033;-86
2023/04/23 09:50:14;;;;;;;1.50;0.50;;;;;;;18.75;100.00;95542.69;6099572;23;20080;-85
2023/04/23 09:52:40;;;;;;;1.23;0.60;;;;;;;19.34;100.00;95530.25;6099942;23;20060;-85
2023/04/23 09:55:06;;;;;;;1.20;0.90;;;;;;;19.62;100.00;95531.44;6124508;23;20168;-86
2023/04/23 09:57:36;;;;;;;0.73;0.60;;;;;;;19.37;100.00;95537.81;6100328;23;20457;-85
2023/04/23 10:00:17;;;;;;;1.23;0.65;;;;;;;20.22;100.00;95531.94;6125144;23;20021;-85
2023/04/23 10:02:48;;;;;;;2.13;0.90;;;;;;;19.96;100.00;95529.81;6125030;23;20469;-86
2023/04/23 10:05:19;;;;;;;2.25;0.80;;;;;;;20.57;100.00;95519.53;6124243;23;20013;-85
2023/04/23 10:07:47;;;;;;;1.25;0.60;;;;;;;20.39;100.00;95524.00;6124168;23;20758;-86
2023/04/23 10:10:17;;;;;;;1.10;0.70;;;;;;;19.59;100.00;95523.91;6148955;23;20663;-85
2023/04/23 10:12:45;;;;;;;2.08;0.65;;;;;;;19.70;100.00;95515.91;6148394;23;20437;-86
2023/04/23 10:15:13;;;;;;;2.58;0.60;;;;;;;20.16;100.00;95513.38;6100475;23;20024;-86
2023/04/23 10:17:40;;;;;;;1.73;0.73;;;;;;;20.04;100.00;95520.59;6100164;23;20013;-86
2023/04/23 10:20:07;;;;;;;0.88;0.60;;;;;;;19.30;100.00;95513.91;6148531;23;20044;-86
2023/04/23 10:22:34;;;;;;;3.83;0.80;;;;;;;19.64;100.00;95516.84;6099472;23;20049;-86
2023/04/23 10:25:11;;;;;;;2.25;0.75;;;;;;;19.60;100.00;95523.66;6124826;23;20021;-86
2023/04/23 10:27:39;;;;;;;2.40;0.70;;;;;;;20.60;100.00;95513.72;6099935;23;20521;-86
2023/04/23 10:30:06;;;;;;;0.73;0.50;;;;;;;21.12;100.00;95505.50;6100768;23;20040;-86
2023/04/23 10:32:33;;;;;;;3.10;0.50;;;;;;;19.98;100.00;95515.16;6125010;23;20475;-86
2023/04/23 10:34:59;;;;;;;1.40;0.73;;;;;;;19.98;100.00;95515.16;6102137;23;20014;-85
2023/04/23 10:37:25;;;;;;;1.70;0.68;;;;;;;20.38;100.00;95517.00;6101532;23;20045;-88
2023/04/23 10:39:54;;;;;;;0.82;0.57;;;;;;;19.98;100.00;95509.00;6121585;23;20009;-76
2023/04/23 10:42:21;;;;;;;1.48;0.73;;;;;;;19.78;100.00;95504.06;6148040;23;20021;-75
2023/04/23 10:44:47;;;;;;;11.52;7.60;;;;;;;20.85;100.00;95506.13;6121742;23;20694;-74
2023/04/23 10:47:16;;;;;;;3.10;1.10;;;;;;;21.21;100.00;95496.00;6123859;23;20021;-87
2023/04/23 10:49:43;;;;;;;4.30;2.08;;;;;;;21.49;100.00;95484.41;6126003;23;20013;-87
2023/04/23 10:52:16;;;;;;;2.90;0.95;;;;;;;21.05;100.00;95483.47;6150007;23;20099;-88
2023/04/23 10:54:55;;;;;;;2.35;0.90;;;;;;;20.87;100.00;95488.00;6125484;23;20041;-87
2023/04/23 10:57:28;;;;;;;0.85;0.65;;;;;;;21.56;99.71;95474.38;6125773;23;20009;-87
2023/04/23 10:59:57;;;;;;;2.78;1.45;;;;;;;21.95;100.00;95478.88;6121135;23;20670;-87
2023/04/23 11:02:24;;;;;;;1.58;0.80;;;;;;;21.64;96.98;95476.63;6144872;23;20009;-79
2023/04/23 11:04:57;;;;;;;1.50;0.80;;;;;;;22.39;98.04;95465.47;6120581;23;20017;-79
2023/04/23 11:07:31;;;;;;;1.60;0.77;;;;;;;21.94;97.14;95470.03;6121185;23;20009;-79
2023/04/23 11:10:13;;;;;;;1.20;0.63;;;;;;;22.46;94.45;95458.84;6121678;23;20063;-80
2023/04/23 11:12:55;;;;;;;1.42;0.82;;;;;;;20.97;100.00;95465.16;6147053;23;20053;-80
2023/04/23 11:15:20;;;;;;;2.83;0.60;;;;;;;21.13;100.00;95462.50;6122622;23;20409;-79
2023/04/23 11:17:47;;;;;;;2.22;1.13;;;;;;;21.38;98.23;95448.69;6122535;23;20013;-79
2023/04/23 11:20:17;;;;;;;1.60;0.50;;;;;;;21.46;100.00;95446.66;6146880;23;20072;-79
2023/04/23 11:22:53;;;;;;;1.10;0.60;;;;;;;21.44;98.64;95446.09;6097071;23;20048;-79
2023/04/23 11:25:26;;;;;;;0.85;0.52;;;;;;;20.47;100.00;95446.13;6147812;23;20603;-79
2023/04/23 11:27:52;;;;;;;;;;;;;;;21.81;100.00;95443.63;6147498;23;20849;-80